Flight Track Log - Related Links

Times and Time Zones

All times are in EST time to prevent confusion due to time zone crossing. See the N605PR flight status page for this flight to view local times or setup timezone preferences in your user account.

Time Position Orientation Groundspeed Altitude Reporting Facility
EST Latitude Longitude Course Direction KTS MPH feet Rate Location/Type
Thu 05:59:56 PM 36.0842 -97.0864 178° South 80 92 3,200  Level Kansas Center
Thu 06:00:58 PM 36.0622 -97.0856 178° South 79 91 3,300 -242 Climbing Kansas Center
Thu 06:02:00 PM 36.0408 -97.0878 185° South 78 90 2,700 -290 Descending Kansas Center
Thu 06:03:02 PM 36.0253 -97.0647 130° Southeast 82 94 2,700 -48 Level Kansas Center
Thu 06:04:04 PM 36.0256 -97.0897 271° West 107 123 2,600  Descending Kansas Center
Thu 06:05:06 PM 36.0617 -97.0906 359° North 123 142 2,700 194 Climbing Kansas Center
Thu 06:06:08 PM 36.0997 -97.0836 North 119 137 3,000 240 Climbing Kansas Center
Thu 06:06:46 PM 36.1361 -97.1103 329° Northwest 221 254 3,100 2,160 Climbing Kansas Center
Thu 06:07:48 PM 36.1903 -97.1583 324° Northwest 275 316 6,600 3,097 Climbing Kansas Center
Thu 06:08:50 PM 36.2650 -97.1631 357° North 271 312 9,500 2,565 Climbing Kansas Center
Thu 06:09:52 PM 36.3381 -97.1861 346° North 270 311 11,900 2,468 Climbing Kansas Center
Thu 06:10:54 PM 36.4083 -97.2206 338° Northwest 271 312 14,600 2,758 Climbing Kansas Center
Thu 06:11:56 PM 36.4975 -97.2350 353° North 272 313 17,600 2,468 Climbing Kansas Center
Thu 06:12:58 PM 36.5725 -97.2450 354° North 272 313 19,700 1,935 Climbing Kansas Center
Thu 06:14:00 PM 36.6547 -97.2556 354° North 290 334 21,600 1,790 Climbing Kansas Center
Thu 06:15:02 PM 36.7406 -97.2667 354° North 305 351 23,400 1,694 Climbing Kansas Center
Thu 06:16:04 PM 36.8308 -97.2767 355° North 321 369 25,100 1,742 Climbing Kansas Center
Thu 06:17:06 PM 36.9389 -97.2922 353° North 332 382 27,000 1,742 Climbing Kansas Center
Thu 06:18:08 PM 37.0339 -97.3022 355° North 339 390 28,700 1,645 Climbing Kansas Center
Thu 06:19:10 PM 37.1306 -97.3128 355° North 346 398 30,400 1,548 Climbing Kansas Center
Thu 06:20:12 PM 37.2283 -97.3261 354° North 349 402 31,900 1,452 Climbing Kansas Center
Thu 06:21:14 PM 37.3261 -97.3367 355° North 351 404 33,400 1,258 Climbing Kansas Center
Thu 06:22:16 PM 37.4275 -97.3500 354° North 361 415 34,500 1,161 Climbing Kansas Center
Thu 06:23:18 PM 37.5483 -97.3631 355° North 365 420 35,800 720 Climbing Kansas Center
Thu 06:24:21 PM 37.6525 -97.3775 354° North 375 432 36,000 96 Climbing Kansas Center
Thu 06:25:23 PM 37.7647 -97.3892 355° North 401 461 36,000  Level Kansas Center
Thu 06:26:25 PM 37.8811 -97.4044 354° North 419 482 36,000  Level Kansas Center
Thu 06:27:27 PM 38.0008 -97.4186 355° North 433 498 36,000  Level Kansas Center
Thu 06:28:29 PM 38.1467 -97.4367 354° North 441 507 36,000  Level Kansas Center
Thu 06:29:31 PM 38.2689 -97.4522 354° North 445 512 36,000  Level Kansas Center
Thu 06:30:32 PM 38.3917 -97.4686 354° North 445 512 36,000  Level Kansas Center
Thu 06:31:34 PM 38.5156 -97.4811 355° North 447 514 36,000  Level Kansas Center
Thu 06:32:36 PM 38.6397 -97.4983 354° North 449 517 36,000  Level Kansas Center
Thu 06:33:38 PM 38.7811 -97.5167 354° North 447 514 36,000  Level Kansas Center
Thu 06:34:40 PM 38.9019 -97.5322 354° North 451 519 36,000  Level Kansas Center
Thu 06:35:42 PM 39.0381 -97.5494 354° North 442 509 36,000  Level Kansas Center
Thu 06:36:44 PM 39.1544 -97.5628 355° North 437 503 36,000  Level Kansas Center
Thu 06:37:47 PM 39.2808 -97.5781 355° North 427 491 36,000  Level Kansas Center
Thu 06:38:49 PM 39.4003 -97.5922 355° North 428 493 36,000  Level Kansas Center
Thu 06:39:51 PM 39.5192 -97.6081 354° North 429 494 36,000  Level Kansas Center
Thu 06:40:53 PM 39.6375 -97.6267 353° North 427 491 36,000  Level Kansas Center
Thu 06:41:55 PM 39.7847 -97.6394 356° North 438 504 36,000  Level Kansas Center
Thu 06:42:50 PM 39.8792 -97.6556 353° North 432 497 36,000  Level Minneapolis Center
Thu 06:43:52 PM 39.9972 -97.6700 355° North 429 494 36,000  Level Minneapolis Center
Thu 06:44:54 PM 40.1164 -97.6867 354° North 428 493 36,000  Level Minneapolis Center
Thu 06:45:56 PM 40.2581 -97.7044 355° North 428 493 36,000  Level Minneapolis Center
Thu 06:46:58 PM 40.3758 -97.7197 354° North 427 491 36,000  Level Minneapolis Center
Thu 06:48:00 PM 40.4928 -97.7353 354° North 425 489 36,000  Level Minneapolis Center
Thu 06:49:02 PM 40.6097 -97.7503 354° North 424 488 36,000  Level Minneapolis Center
Thu 06:50:04 PM 40.7258 -97.7658 354° North 422 486 36,000  Level Minneapolis Center
Thu 06:51:07 PM 40.8661 -97.7850 354° North 422 486 36,000  Level Minneapolis Center
Thu 06:52:09 PM 40.9819 -97.7989 355° North 421 484 36,000  Level Minneapolis Center
Thu 06:53:11 PM 41.0981 -97.8156 354° North 421 484 36,000  Level Minneapolis Center
Thu 06:54:13 PM 41.2144 -97.8306 354° North 421 484 36,000  Level Minneapolis Center
Thu 06:55:15 PM 41.3333 -97.8469 354° North 418 481 36,000 194 Level Minneapolis Center
Thu 06:56:17 PM 41.4456 -97.8628 354° North 410 472 36,400 774 Climbing Minneapolis Center
Thu 06:57:19 PM 41.5519 -97.8750 355° North 394 453 37,600 774 Climbing Minneapolis Center
Thu 06:58:21 PM 41.6522 -97.8914 353° North 372 428 38,000 194 Climbing Minneapolis Center
Thu 06:59:23 PM 41.7794 -97.9069 355° North 375 432 38,000  Level Minneapolis Center
Thu 07:00:25 PM 41.8878 -97.9211 354° North 386 444 38,000  Level Minneapolis Center
Thu 07:01:28 PM 41.9972 -97.9375 354° North 392 451 38,000  Level Minneapolis Center
Thu 07:02:30 PM 42.1217 -97.9522 355° North 396 456 38,000  Level Minneapolis Center
Thu 07:03:32 PM 42.2333 -97.9675 354° North 400 460 38,000  Level Minneapolis Center
Thu 07:04:34 PM 42.3428 -97.9828 354° North 398 458 38,000  Level Minneapolis Center
Thu 07:05:36 PM 42.4531 -97.9975 354° North 397 457 38,000  Level Minneapolis Center
Thu 07:06:38 PM 42.5608 -98.0128 354° North 391 450 38,000  Level Minneapolis Center
Thu 07:07:40 PM 42.6839 -98.0286 355° North 389 448 38,000  Level Minneapolis Center
Thu 07:08:42 PM 42.7889 -98.0428 354° North 382 440 38,000  Level Minneapolis Center
Thu 07:09:44 PM 42.8964 -98.0583 354° North 386 444 38,000  Level Minneapolis Center
Thu 07:10:46 PM 43.0039 -98.0731 354° North 388 447 38,000  Level Minneapolis Center
Thu 07:11:49 PM 43.1108 -98.0900 353° North 387 445 38,000  Level Minneapolis Center
Thu 07:12:51 PM 43.2178 -98.1011 356° North 385 443 38,000  Level Minneapolis Center
Thu 07:13:53 PM 43.3453 -98.1217 353° North 385 443 38,000  Level Minneapolis Center
Thu 07:14:55 PM 43.4519 -98.1356 355° North 385 443 38,000  Level Minneapolis Center
Thu 07:15:57 PM 43.5592 -98.1506 354° North 387 445 38,000  Level Minneapolis Center
Thu 07:16:59 PM 43.6664 -98.1650 354° North 387 445 38,000 -581 Level Minneapolis Center
Thu 07:18:01 PM 43.7700 -98.1792 354° North 377 434 36,800 -1,500 Descending Minneapolis Center
Thu 07:19:03 PM 43.8783 -98.1947 354° North 388 447 34,900 -2,081 Descending Minneapolis Center
Thu 07:20:05 PM 43.9972 -98.2106 355° North 361 415 32,500 -2,129 Descending Minneapolis Center
Thu 07:21:07 PM 44.0972 -98.2267 353° North 361 415 30,500 -1,887 Descending Minneapolis Center
Thu 07:22:09 PM 44.1989 -98.2386 355° North 365 420 28,600 -1,887 Descending Minneapolis Center
Thu 07:23:11 PM 44.3000 -98.2561 353° North 365 420 26,600 -1,935 Descending Minneapolis Center
Thu 07:24:13 PM 44.4044 -98.2694 355° North 372 428 24,600 -1,935 Descending Minneapolis Center
Thu 07:25:15 PM 44.5083 -98.2842 354° North 374 430 22,600 -2,129 Descending Minneapolis Center
Thu 07:26:17 PM 44.6325 -98.3025 354° North 374 430 20,200 -2,226 Descending Minneapolis Center
Thu 07:27:19 PM 44.7336 -98.3144 355° North 369 425 18,000 -2,032 Descending Minneapolis Center
Thu 07:28:21 PM 44.8242 -98.3297 353° North 347 399 16,000 -2,032 Descending Minneapolis Center
Thu 07:29:23 PM 44.9131 -98.3400 355° North 331 381 13,800 -1,839 Descending Minneapolis Center
Thu 07:30:25 PM 44.9981 -98.3669 347° North 320 368 12,200 -1,500 Descending Minneapolis Center
Thu 07:31:27 PM 45.0892 -98.4053 343° North 310 357 10,700 -1,355 Descending Minneapolis Center
Thu 07:32:29 PM 45.1642 -98.4361 344° North 294 338 9,400 -1,306 Descending Minneapolis Center
Thu 07:33:31 PM 45.2311 -98.4647 343° North 269 310 8,000 -1,306 Descending Minneapolis Center
Thu 07:34:33 PM 45.2964 -98.4925 343° North 256 295 6,700 -1,258 Descending Minneapolis Center
Thu 07:35:35 PM 45.3567 -98.5175 344° North 245 282 5,400 -1,355 Descending Minneapolis Center
Thu 07:36:37 PM 45.4172 -98.5442 343° North 222 255 3,900 -1,452 Descending Minneapolis Center

Login

Don't have an account? Register now (free) for customized features, flight alerts, and more!